Time;durP1;ratioP1;P1;durP2;ratioP2;P2;SDS_P1;SDS_P2;PMS_P1;PMS_P2;Temp;Humidity;BMP_temperature;BMP_pressure;BME280_temperature;BME280_humidity;BME280_pressure;Samples;Min_cycle;Max_cycle;Signal;HPM_P1;HPM_P2
2021/07/18 00:01:41;;;;;;;9.20;5.20;;;19.80;99.90;;;;;;5031247;28;20402;-50
2021/07/18 00:04:08;;;;;;;8.47;5.20;;;19.90;99.90;;;;;;5033973;28;20298;-50
2021/07/18 00:06:43;;;;;;;8.97;6.07;;;19.90;99.90;;;;;;5034678;28;20294;-50
2021/07/18 00:09:10;;;;;;;8.53;5.30;;;19.90;99.90;;;;;;5034088;28;20204;-50
2021/07/18 00:11:37;;;;;;;9.23;4.70;;;19.80;99.90;;;;;;5030905;28;20204;-50
2021/07/18 00:14:05;;;;;;;6.60;5.00;;;19.70;99.90;;;;;;5029815;28;20723;-50
2021/07/18 00:16:32;;;;;;;4.70;4.17;;;19.70;99.90;;;;;;5030794;28;20211;-50
2021/07/18 00:19:00;;;;;;;8.30;4.47;;;19.70;99.90;;;;;;5036164;28;20239;-50
2021/07/18 00:21:27;;;;;;;5.53;4.40;;;19.80;99.90;;;;;;5032329;28;20744;-50
2021/07/18 00:23:54;;;;;;;6.33;4.67;;;19.80;99.90;;;;;;5029090;28;21075;-50
2021/07/18 00:26:22;;;;;;;7.20;4.90;;;19.70;99.90;;;;;;5033779;28;20245;-50
2021/07/18 00:28:50;;;;;;;7.90;5.10;;;19.60;99.90;;;;;;5032253;28;20229;-50
2021/07/18 00:31:17;;;;;;;6.53;5.00;;;19.60;99.90;;;;;;5032838;28;20262;-50
2021/07/18 00:33:44;;;;;;;6.17;5.20;;;19.50;99.90;;;;;;5030816;28;20270;-50
2021/07/18 00:36:11;;;;;;;8.10;5.17;;;19.40;99.90;;;;;;5031788;28;20387;-50
2021/07/18 00:38:38;;;;;;;9.63;4.97;;;19.40;99.90;;;;;;5032350;28;20519;-50
2021/07/18 00:41:05;;;;;;;6.13;4.73;;;19.40;99.90;;;;;;5035452;28;20699;-50
2021/07/18 00:43:32;;;;;;;6.70;4.40;;;19.40;99.90;;;;;;5028624;28;20377;-50
2021/07/18 00:46:00;;;;;;;8.57;5.33;;;19.40;99.90;;;;;;5028258;28;20236;-50
2021/07/18 00:48:30;;;;;;;7.87;4.80;;;19.50;99.90;;;;;;5026290;28;20208;-50
2021/07/18 00:50:58;;;;;;;8.43;4.87;;;19.50;99.90;;;;;;5031056;28;20931;-50
2021/07/18 00:53:25;;;;;;;7.67;5.07;;;19.30;99.90;;;;;;5044521;28;20287;-50
2021/07/18 00:55:54;;;;;;;9.03;4.90;;;19.40;99.90;;;;;;5029794;28;20703;-50
2021/07/18 00:58:23;;;;;;;5.77;5.13;;;19.40;99.90;;;;;;5029139;28;20295;-50
2021/07/18 01:00:50;;;;;;;7.53;5.10;;;19.30;99.90;;;;;;5024923;28;20265;-50
2021/07/18 01:03:18;;;;;;;8.57;4.93;;;19.20;99.90;;;;;;5024612;28;20281;-53
2021/07/18 01:05:45;;;;;;;8.10;5.37;;;19.20;99.90;;;;;;5027352;28;20269;-50
2021/07/18 01:08:12;;;;;;;8.37;5.60;;;19.00;99.90;;;;;;5026832;28;20693;-49
2021/07/18 01:10:38;;;;;;;7.90;5.70;;;19.10;99.90;;;;;;5032723;28;20291;-50
2021/07/18 01:13:06;;;;;;;6.97;5.47;;;19.00;99.90;;;;;;5025206;28;20208;-50
2021/07/18 01:15:38;;;;;;;7.03;5.00;;;19.10;99.90;;;;;;5028668;28;20244;-50
2021/07/18 01:18:07;;;;;;;11.13;6.43;;;19.00;99.90;;;;;;5025962;28;20200;-50
2021/07/18 01:20:35;;;;;;;9.80;5.47;;;19.00;99.90;;;;;;5026678;28;20551;-50
2021/07/18 01:23:03;;;;;;;7.87;5.83;;;19.10;99.90;;;;;;5026876;28;20308;-50
2021/07/18 01:25:32;;;;;;;8.23;5.93;;;19.00;99.90;;;;;;5032060;28;20203;-50
2021/07/18 01:27:59;;;;;;;7.70;5.80;;;19.00;99.90;;;;;;5030244;28;20584;-50
2021/07/18 01:30:26;;;;;;;10.00;5.90;;;19.00;99.90;;;;;;5030669;28;20922;-49
2021/07/18 01:32:53;;;;;;;10.50;5.70;;;19.00;99.90;;;;;;5029582;28;20309;-49
2021/07/18 01:35:20;;;;;;;8.90;5.37;;;19.00;99.90;;;;;;5030539;28;20299;-50
2021/07/18 01:37:47;;;;;;;9.87;5.73;;;18.80;99.90;;;;;;5026384;28;20205;-50
2021/07/18 01:40:14;;;;;;;14.30;6.13;;;18.80;99.90;;;;;;5026000;28;20533;-50
2021/07/18 01:42:41;;;;;;;8.33;5.90;;;18.80;99.90;;;;;;5030831;28;20286;-50
2021/07/18 01:45:08;;;;;;;8.03;5.37;;;18.90;99.90;;;;;;5026283;28;20318;-50
2021/07/18 01:47:35;;;;;;;11.47;6.70;;;18.90;99.90;;;;;;5022488;28;20199;-50
2021/07/18 01:50:05;;;;;;;8.37;5.63;;;18.80;99.90;;;;;;5029145;28;20294;-50
2021/07/18 01:52:32;;;;;;;10.77;5.63;;;18.90;99.90;;;;;;5026065;28;20201;-50
2021/07/18 01:54:59;;;;;;;7.60;6.10;;;18.80;99.90;;;;;;5025406;28;20292;-50
2021/07/18 01:57:26;;;;;;;12.03;6.87;;;18.90;99.90;;;;;;5024324;28;20292;-50
2021/07/18 01:59:53;;;;;;;8.90;5.97;;;18.90;99.90;;;;;;5030875;28;20196;-50
2021/07/18 02:02:20;;;;;;;10.50;5.83;;;18.80;99.90;;;;;;5025495;28;20306;-50
2021/07/18 02:04:48;;;;;;;10.40;5.97;;;18.80;99.90;;;;;;5026531;28;21304;-50
2021/07/18 02:07:16;;;;;;;10.20;5.83;;;18.90;99.90;;;;;;5030778;28;21366;-50
2021/07/18 02:09:43;;;;;;;7.97;5.63;;;18.80;99.90;;;;;;5024866;28;20195;-50
2021/07/18 02:12:11;;;;;;;8.10;5.77;;;18.80;99.90;;;;;;5027847;28;20317;-50
2021/07/18 02:14:39;;;;;;;11.67;7.00;;;18.70;99.90;;;;;;5025440;28;20298;-50
2021/07/18 02:17:06;;;;;;;9.47;5.90;;;18.70;99.90;;;;;;5027201;28;20609;-50
2021/07/18 02:19:34;;;;;;;11.90;6.13;;;18.60;99.90;;;;;;5032329;28;20350;-50
2021/07/18 02:22:01;;;;;;;9.53;6.10;;;18.60;99.90;;;;;;5028083;28;20582;-50
2021/07/18 02:24:29;;;;;;;10.57;6.13;;;18.50;99.90;;;;;;5028306;28;20237;-50
2021/07/18 02:26:56;;;;;;;11.53;5.90;;;18.50;99.90;;;;;;5027717;28;20226;-50
2021/07/18 02:29:23;;;;;;;9.53;6.30;;;18.60;99.90;;;;;;5030480;28;20227;-50
2021/07/18 02:31:56;;;;;;;8.90;6.37;;;18.70;99.90;;;;;;5026608;28;20234;-51
2021/07/18 02:34:24;;;;;;;8.53;6.77;;;18.70;99.90;;;;;;5027698;28;20209;-51
2021/07/18 02:36:50;;;;;;;9.43;6.50;;;18.70;99.90;;;;;;5028546;28;20314;-50
2021/07/18 02:39:17;;;;;;;9.63;6.63;;;18.70;99.90;;;;;;5033480;28;20337;-51
2021/07/18 02:41:44;;;;;;;11.17;7.33;;;18.70;99.90;;;;;;5027997;28;20217;-51
2021/07/18 02:44:11;;;;;;;10.57;6.57;;;18.70;99.90;;;;;;5027355;28;20206;-51
2021/07/18 02:46:37;;;;;;;12.37;6.90;;;18.70;99.90;;;;;;5027115;28;20366;-50
2021/07/18 02:49:05;;;;;;;13.27;6.87;;;18.60;99.90;;;;;;5025461;28;20613;-51
2021/07/18 02:51:32;;;;;;;13.03;6.97;;;18.60;99.90;;;;;;5027944;28;20938;-50
2021/07/18 02:53:58;;;;;;;13.30;7.07;;;18.60;99.90;;;;;;5025859;28;20260;-51
2021/07/18 02:56:25;;;;;;;10.93;7.03;;;18.60;99.90;;;;;;5028372;28;20211;-50
2021/07/18 02:58:52;;;;;;;11.63;7.23;;;18.60;99.90;;;;;;5033754;28;20355;-51
2021/07/18 03:01:19;;;;;;;9.67;7.03;;;18.60;99.90;;;;;;5033973;28;20322;-50
2021/07/18 03:03:46;;;;;;;9.90;6.83;;;18.60;99.90;;;;;;5031721;28;20200;-50
2021/07/18 03:06:12;;;;;;;10.77;6.53;;;18.50;99.90;;;;;;5031413;28;20576;-51
2021/07/18 03:08:39;;;;;;;9.97;6.90;;;18.50;99.90;;;;;;5030281;28;20294;-50
2021/07/18 03:11:06;;;;;;;9.53;6.73;;;18.40;99.90;;;;;;5032908;28;20303;-51
2021/07/18 03:13:33;;;;;;;11.63;6.77;;;18.30;99.90;;;;;;5028906;28;20283;-51
2021/07/18 03:16:00;;;;;;;13.00;6.73;;;18.40;99.90;;;;;;5027604;28;20261;-49
2021/07/18 03:18:27;;;;;;;9.07;6.53;;;18.40;99.90;;;;;;5027468;28;20252;-49
2021/07/18 03:20:54;;;;;;;12.00;7.43;;;18.40;99.90;;;;;;5032880;28;20220;-49
2021/07/18 03:23:20;;;;;;;8.40;6.83;;;18.30;99.90;;;;;;5024368;28;20726;-51
2021/07/18 03:25:47;;;;;;;9.63;7.70;;;18.30;99.90;;;;;;5029494;28;20239;-49
2021/07/18 03:28:14;;;;;;;11.93;8.03;;;18.30;99.90;;;;;;5022647;28;21201;-49
2021/07/18 03:30:41;;;;;;;9.47;7.13;;;18.30;99.90;;;;;;5027235;28;20302;-49
2021/07/18 03:33:07;;;;;;;10.97;7.57;;;18.40;99.90;;;;;;5024214;28;20192;-49
2021/07/18 03:35:35;;;;;;;12.07;7.60;;;18.40;99.90;;;;;;5031542;28;20207;-49
2021/07/18 03:38:01;;;;;;;12.10;7.90;;;18.50;99.90;;;;;;5027271;28;20382;-49
2021/07/18 03:40:28;;;;;;;13.03;8.10;;;18.30;99.90;;;;;;5035878;28;20298;-49
2021/07/18 03:42:56;;;;;;;10.47;7.27;;;18.20;99.90;;;;;;5029822;28;20311;-49
2021/07/18 03:45:23;;;;;;;16.10;8.23;;;18.20;99.90;;;;;;5027758;28;20210;-48
2021/07/18 03:47:50;;;;;;;10.87;8.23;;;18.30;99.90;;;;;;5026247;28;20232;-49
2021/07/18 03:50:18;;;;;;;15.37;9.57;;;18.30;99.90;;;;;;5027064;28;20223;-51
2021/07/18 03:52:45;;;;;;;15.73;9.13;;;18.30;99.90;;;;;;5019027;28;20326;-49
2021/07/18 03:55:13;;;;;;;14.03;7.83;;;18.20;99.90;;;;;;5024154;28;20449;-49
2021/07/18 03:57:41;;;;;;;12.27;8.37;;;18.20;99.90;;;;;;5024650;28;20287;-50
2021/07/18 04:00:08;;;;;;;12.30;8.17;;;18.30;99.90;;;;;;5027594;28;20622;-49
2021/07/18 04:02:35;;;;;;;14.43;8.63;;;18.10;99.90;;;;;;5027778;28;20647;-49
2021/07/18 04:05:02;;;;;;;13.10;8.60;;;18.20;99.90;;;;;;5028651;28;20196;-49
2021/07/18 04:07:33;;;;;;;10.63;8.57;;;18.10;99.90;;;;;;5029607;28;20222;-49
2021/07/18 04:10:01;;;;;;;16.03;8.70;;;18.20;99.90;;;;;;5028243;28;20215;-50
2021/07/18 04:12:28;;;;;;;15.17;8.30;;;18.20;99.90;;;;;;5027181;28;20293;-49
2021/07/18 04:14:55;;;;;;;13.17;8.90;;;18.20;99.90;;;;;;5030576;28;20484;-50
2021/07/18 04:17:22;;;;;;;12.03;8.07;;;18.10;99.90;;;;;;5021869;28;20342;-50
2021/07/18 04:19:49;;;;;;;12.73;8.40;;;18.10;99.90;;;;;;5020852;28;20198;-50
2021/07/18 04:22:16;;;;;;;11.73;8.03;;;18.10;99.90;;;;;;5021580;28;20242;-50
2021/07/18 04:24:43;;;;;;;13.87;8.40;;;18.20;99.90;;;;;;5022141;28;20322;-50
2021/07/18 04:27:10;;;;;;;13.43;8.17;;;18.30;99.90;;;;;;5026915;28;20288;-50
2021/07/18 04:29:37;;;;;;;15.83;8.47;;;18.30;99.90;;;;;;5025357;28;20419;-50
2021/07/18 04:32:04;;;;;;;9.80;7.43;;;18.40;99.90;;;;;;5024959;28;20588;-50
2021/07/18 04:34:32;;;;;;;12.20;8.33;;;18.30;99.90;;;;;;5022084;28;20253;-50
2021/07/18 04:36:59;;;;;;;16.40;8.77;;;18.40;99.90;;;;;;5023599;28;20239;-50
2021/07/18 04:39:26;;;;;;;11.97;8.07;;;18.40;99.90;;;;;;5026360;28;20200;-50
2021/07/18 04:41:53;;;;;;;12.60;8.23;;;18.40;99.90;;;;;;5028018;28;20721;-50
2021/07/18 04:44:20;;;;;;;10.93;6.60;;;18.40;99.90;;;;;;5027521;28;20298;-50
2021/07/18 04:46:47;;;;;;;11.87;8.00;;;18.40;99.90;;;;;;5023599;28;20321;-50
2021/07/18 04:49:14;;;;;;;13.70;8.37;;;18.50;99.90;;;;;;5027577;28;20257;-50
2021/07/18 04:51:40;;;;;;;12.23;7.50;;;18.50;99.90;;;;;;5025920;28;20234;-50
2021/07/18 04:54:11;;;;;;;9.77;6.90;;;18.60;99.90;;;;;;5025086;28;20238;-50
2021/07/18 04:56:38;;;;;;;12.97;7.17;;;18.60;99.90;;;;;;5027018;28;20203;-50
2021/07/18 04:59:05;;;;;;;10.80;7.40;;;18.50;99.90;;;;;;5020146;28;20715;-49
2021/07/18 05:01:32;;;;;;;13.00;7.87;;;18.60;99.90;;;;;;5024873;28;20343;-50
2021/07/18 05:03:59;;;;;;;9.53;6.40;;;18.60;99.90;;;;;;5022954;28;20285;-50
2021/07/18 05:06:26;;;;;;;9.77;7.10;;;18.50;99.90;;;;;;5019389;28;20284;-50
2021/07/18 05:08:53;;;;;;;10.07;7.13;;;18.60;99.90;;;;;;5023584;28;20937;-50
2021/07/18 05:11:20;;;;;;;10.73;7.13;;;18.60;99.90;;;;;;5030897;28;20262;-50
2021/07/18 05:13:52;;;;;;;10.60;6.93;;;18.50;99.90;;;;;;5028938;28;20205;-50
2021/07/18 05:16:19;;;;;;;8.47;6.50;;;18.50;99.90;;;;;;5027323;28;20240;-50
2021/07/18 05:18:47;;;;;;;9.73;7.50;;;18.50;99.90;;;;;;5029806;28;20254;-50
2021/07/18 05:21:14;;;;;;;9.17;6.10;;;18.60;99.90;;;;;;5027670;28;21835;-50
2021/07/18 05:23:41;;;;;;;10.10;6.07;;;18.60;99.90;;;;;;5024212;28;20295;-50
2021/07/18 05:26:08;;;;;;;11.20;6.10;;;18.70;99.90;;;;;;5028998;28;20366;-50
2021/07/18 05:28:34;;;;;;;8.43;6.07;;;18.60;99.90;;;;;;5027389;28;20196;-50
2021/07/18 05:31:01;;;;;;;9.80;6.43;;;18.80;99.90;;;;;;5025502;28;20282;-50
2021/07/18 05:33:28;;;;;;;9.80;6.23;;;18.90;99.90;;;;;;5015556;28;20250;-50
2021/07/18 05:35:55;;;;;;;9.83;6.17;;;19.10;99.90;;;;;;5030307;28;20656;-51
2021/07/18 05:38:23;;;;;;;10.60;6.40;;;19.20;99.90;;;;;;5025633;28;20310;-50
2021/07/18 05:40:59;;;;;;;9.07;6.13;;;19.20;99.90;;;;;;5029629;28;20214;-50
2021/07/18 05:43:25;;;;;;;8.17;6.40;;;19.10;99.90;;;;;;5029202;28;20634;-51
2021/07/18 05:45:52;;;;;;;8.80;6.50;;;19.20;99.90;;;;;;5033911;28;20247;-50
2021/07/18 05:48:23;;;;;;;8.47;5.53;;;19.30;99.90;;;;;;5032567;28;20399;-50
2021/07/18 05:50:54;;;;;;;6.77;5.67;;;19.40;99.90;;;;;;5032014;28;20196;-50
2021/07/18 05:53:21;;;;;;;7.67;5.43;;;19.40;99.90;;;;;;5031021;28;20291;-50
2021/07/18 05:55:48;;;;;;;7.77;5.60;;;19.50;99.90;;;;;;5028576;28;20242;-50
2021/07/18 05:58:14;;;;;;;5.17;4.40;;;19.60;99.90;;;;;;5033452;28;20236;-49
2021/07/18 06:00:41;;;;;;;7.67;4.77;;;19.80;99.90;;;;;;5031131;28;20416;-50
2021/07/18 06:03:08;;;;;;;6.73;4.17;;;19.80;99.90;;;;;;5031175;28;20235;-50
2021/07/18 06:05:35;;;;;;;5.40;3.63;;;19.70;99.90;;;;;;5031752;28;20201;-50
2021/07/18 06:08:06;;;;;;;6.50;4.27;;;19.80;99.90;;;;;;5034202;28;20704;-50
2021/07/18 06:10:32;;;;;;;4.77;3.90;;;19.80;99.90;;;;;;5031081;28;20322;-50
2021/07/18 06:12:59;;;;;;;5.10;3.87;;;19.80;99.90;;;;;;5030385;28;20304;-50
2021/07/18 06:15:26;;;;;;;5.07;3.73;;;19.80;99.90;;;;;;5031948;28;20307;-50
2021/07/18 06:17:53;;;;;;;6.10;3.73;;;20.00;99.90;;;;;;5030236;28;20218;-50
2021/07/18 06:20:20;;;;;;;4.97;3.50;;;20.00;91.40;;;;;;5030838;28;20204;-50
2021/07/18 06:22:48;;;;;;;5.27;3.50;;;20.00;49.90;;;;;;5025948;28;20314;-50
2021/07/18 06:25:14;;;;;;;6.80;3.93;;;20.10;84.20;;;;;;5030538;28;20928;-50
2021/07/18 06:27:41;;;;;;;6.50;3.37;;;20.10;17.80;;;;;;5030776;28;20570;-50
2021/07/18 06:30:10;;;;;;;6.27;3.73;;;20.10;96.50;;;;;;5027933;28;20200;-50
2021/07/18 06:32:38;;;;;;;6.60;3.60;;;20.20;63.60;;;;;;5030995;28;20232;-50
2021/07/18 06:35:06;;;;;;;5.53;3.47;;;20.20;58.90;;;;;;5036125;28;20655;-50
2021/07/18 06:37:33;;;;;;;6.30;4.03;;;20.10;99.90;;;;;;5033365;28;20267;-50
2021/07/18 06:40:01;;;;;;;4.33;3.43;;;20.30;99.90;;;;;;5038980;28;20263;-50
2021/07/18 06:42:28;;;;;;;4.57;3.60;;;20.40;67.20;;;;;;5034055;28;20605;-50
2021/07/18 06:44:58;;;;;;;3.43;2.67;;;20.40;1.00;;;;;;5037386;28;20260;-50
2021/07/18 06:47:28;;;;;;;5.13;3.60;;;20.50;1.00;;;;;;5031089;28;20240;-50
2021/07/18 06:49:57;;;;;;;5.70;3.27;;;20.50;1.00;;;;;;5033826;28;20224;-49
2021/07/18 06:52:25;;;;;;;7.17;2.90;;;20.70;1.00;;;;;;5025583;28;22080;-50
2021/07/18 06:54:52;;;;;;;4.80;3.63;;;20.90;1.00;;;;;;5029064;28;20315;-50
2021/07/18 06:57:20;;;;;;;6.53;3.10;;;20.80;1.00;;;;;;5029000;28;20198;-50
2021/07/18 06:59:47;;;;;;;4.23;2.73;;;21.10;1.00;;;;;;5030127;28;20241;-50
2021/07/18 07:02:15;;;;;;;3.60;2.60;;;21.30;1.00;;;;;;5028881;28;20276;-50
2021/07/18 07:04:42;;;;;;;5.80;2.70;;;21.30;1.00;;;;;;5030016;28;20218;-50
2021/07/18 07:07:09;;;;;;;3.07;2.00;;;21.40;1.00;;;;;;5025982;28;20332;-50
2021/07/18 07:09:36;;;;;;;3.13;2.17;;;21.60;1.00;;;;;;5025151;28;21717;-50
2021/07/18 07:12:04;;;;;;;3.20;2.60;;;21.60;99.90;;;;;;5028043;28;20297;-50
2021/07/18 07:14:31;;;;;;;3.20;2.20;;;21.60;1.00;;;;;;5028930;28;20205;-56
2021/07/18 07:16:58;;;;;;;2.30;2.10;;;21.90;1.00;;;;;;5030392;28;20204;-56
2021/07/18 07:19:25;;;;;;;5.57;2.47;;;21.90;1.00;;;;;;5026976;28;20333;-56
2021/07/18 07:21:51;;;;;;;3.53;1.80;;;22.20;99.90;;;;;;5028384;28;20719;-56
2021/07/18 07:24:18;;;;;;;3.30;2.10;;;22.40;1.00;;;;;;5031817;28;20235;-56
2021/07/18 07:26:45;;;;;;;3.43;1.80;;;22.50;1.00;;;;;;5032723;28;20549;-56
2021/07/18 07:29:12;;;;;;;3.40;1.83;;;22.80;1.00;;;;;;5029867;28;20595;-56
2021/07/18 07:31:39;;;;;;;3.58;2.10;;;22.80;1.00;;;;;;5027815;28;20547;-55
2021/07/18 07:34:05;;;;;;;5.13;2.73;;;22.80;1.00;;;;;;5033022;28;20222;-55
2021/07/18 07:36:32;;;;;;;3.93;2.07;;;23.90;99.90;;;;;;5030818;28;20204;-55
2021/07/18 07:38:59;;;;;;;2.20;1.70;;;24.30;1.00;;;;;;5029087;28;20229;-55
2021/07/18 07:41:26;;;;;;;5.03;1.83;;;25.00;99.90;;;;;;5027292;28;20293;-55
2021/07/18 07:43:56;;;;;;;3.40;1.80;;;24.70;1.00;;;;;;5033137;28;20381;-55
2021/07/18 07:46:24;;;;;;;3.50;1.70;;;24.50;1.00;;;;;;5031670;28;20296;-55
2021/07/18 07:48:51;;;;;;;2.30;1.87;;;25.00;99.90;;;;;;5031084;28;20209;-55
2021/07/18 07:51:19;;;;;;;3.93;2.57;;;25.20;1.00;;;;;;5031064;28;20285;-56
2021/07/18 07:53:47;;;;;;;2.20;1.40;;;25.40;1.00;;;;;;5027618;28;20304;-57
2021/07/18 07:56:14;;;;;;;2.90;1.80;;;26.10;1.00;;;;;;5034730;28;20637;-55
2021/07/18 07:58:41;;;;;;;4.10;1.67;;;26.50;1.00;;;;;;5027321;28;20955;-55
2021/07/18 08:01:08;;;;;;;3.90;1.60;;;27.00;99.90;;;;;;5029852;28;20305;-55
2021/07/18 08:03:35;;;;;;;1.47;1.20;;;26.40;1.00;;;;;;5028329;28;20543;-55
2021/07/18 08:06:03;;;;;;;3.73;1.30;;;26.20;26.50;;;;;;5028982;28;20225;-55
2021/07/18 08:08:29;;;;;;;3.03;1.30;;;26.50;1.00;;;;;;5031691;28;20298;-55
2021/07/18 08:11:06;;;;;;;1.73;1.30;;;26.40;99.90;;;;;;5030352;28;20764;-55
2021/07/18 08:13:33;;;;;;;3.67;1.30;;;26.60;1.00;;;;;;5029069;28;20222;-55
2021/07/18 08:16:00;;;;;;;2.40;1.87;;;27.10;1.00;;;;;;5028108;28;20309;-55
2021/07/18 08:18:27;;;;;;;2.90;1.47;;;27.40;6.10;;;;;;5029638;28;20340;-55
2021/07/18 08:20:54;;;;;;;1.50;1.20;;;27.20;1.00;;;;;;5026727;28;20231;-55
2021/07/18 08:23:21;;;;;;;3.13;1.70;;;27.30;99.90;;;;;;5027985;28;20309;-55
2021/07/18 08:25:48;;;;;;;3.53;1.30;;;28.00;1.00;;;;;;5029820;28;20246;-55
2021/07/18 08:28:14;;;;;;;3.70;1.57;;;28.10;1.00;;;;;;5028717;28;20202;-55
2021/07/18 08:30:44;;;;;;;1.83;1.23;;;28.70;1.00;;;;;;5028537;28;20208;-55
2021/07/18 08:33:11;;;;;;;4.53;1.50;;;28.10;1.00;;;;;;5032320;28;20212;-55
2021/07/18 08:35:38;;;;;;;3.63;1.40;;;27.50;1.00;;;;;;5026897;28;20579;-55
2021/07/18 08:38:06;;;;;;;2.70;1.73;;;26.90;1.00;;;;;;5027198;28;20983;-55
2021/07/18 08:40:35;;;;;;;2.93;1.87;;;26.80;99.90;;;;;;5038169;28;20796;-55
2021/07/18 08:43:05;;;;;;;3.00;1.50;;;27.00;99.90;;;;;;5042399;28;20663;-55
2021/07/18 08:45:32;;;;;;;4.63;1.53;;;27.50;99.90;;;;;;5043919;28;20228;-55
2021/07/18 08:47:59;;;;;;;3.27;1.60;;;27.70;1.00;;;;;;5037761;28;20352;-55
2021/07/18 08:50:26;;;;;;;4.17;1.80;;;28.40;1.00;;;;;;5036234;28;20285;-55
2021/07/18 08:52:55;;;;;;;6.90;1.67;;;28.40;1.00;;;;;;5039229;28;20244;-55
2021/07/18 08:55:24;;;;;;;1.67;1.33;;;28.80;99.90;;;;;;5043336;28;20258;-55
2021/07/18 08:57:52;;;;;;;3.23;1.90;;;28.60;1.00;;;;;;5043403;28;20535;-55
2021/07/18 09:00:20;;;;;;;3.33;1.90;;;28.20;1.00;;;;;;5042280;28;20396;-55
2021/07/18 09:02:47;;;;;;;2.50;1.60;;;28.30;1.00;;;;;;5041288;28;20212;-55
2021/07/18 09:05:13;;;;;;;2.67;1.67;;;28.40;1.00;;;;;;5036790;28;20207;-55
2021/07/18 09:07:44;;;;;;;3.38;1.75;;;28.90;99.90;;;;;;5037249;28;20667;-55
2021/07/18 09:10:11;;;;;;;3.38;2.15;;;28.50;1.00;;;;;;5037566;28;20273;-55
2021/07/18 09:12:38;;;;;;;2.38;1.50;;;29.40;1.00;;;;;;5036804;28;20211;-55
2021/07/18 09:15:06;;;;;;;3.30;1.80;;;28.20;1.00;;;;;;5039236;28;20228;-54
2021/07/18 09:17:35;;;;;;;2.95;1.90;;;27.80;1.00;;;;;;5036515;28;20631;-55
2021/07/18 09:20:15;;;;;;;1.47;1.30;;;28.10;1.00;;;;;;5035641;28;20196;-55
2021/07/18 09:22:42;;;;;;;5.10;1.40;;;28.30;1.00;;;;;;5032159;28;20307;-55
2021/07/18 09:25:09;;;;;;;1.60;1.50;;;28.30;1.00;;;;;;5039373;28;20334;-55
2021/07/18 09:27:36;;;;;;;3.45;1.98;;;29.00;99.90;;;;;;5037850;28;20291;-55
2021/07/18 09:30:06;;;;;;;2.30;1.40;;;28.70;99.90;;;;;;5033540;28;20578;-55
2021/07/18 09:32:34;;;;;;;2.10;1.60;;;28.30;1.00;;;;;;5038437;28;20668;-54
2021/07/18 09:35:13;;;;;;;2.22;1.70;;;28.00;1.00;;;;;;5038400;28;20207;-54
2021/07/18 09:37:50;;;;;;;3.10;1.40;;;28.80;1.00;;;;;;5036469;28;20235;-55
2021/07/18 09:40:19;;;;;;;2.65;1.65;;;28.50;1.00;;;;;;5030598;28;20269;-55
2021/07/18 09:42:51;;;;;;;3.67;1.60;;;28.20;99.90;;;;;;5036974;28;20273;-55
2021/07/18 09:45:23;;;;;;;2.93;1.63;;;27.60;1.00;;;;;;5035963;28;20242;-55
2021/07/18 09:47:50;;;;;;;4.43;1.70;;;27.50;1.00;;;;;;5038722;28;20275;-55
2021/07/18 09:50:27;;;;;;;2.37;1.57;;;27.60;20.10;;;;;;5038080;28;20253;-55
2021/07/18 09:53:09;;;;;;;3.53;1.60;;;28.00;1.00;;;;;;5035216;28;20325;-55
2021/07/18 09:55:39;;;;;;;3.22;1.40;;;27.20;99.90;;;;;;5036455;28;20943;-55
2021/07/18 09:58:06;;;;;;;4.30;1.60;;;27.90;99.90;;;;;;5036881;28;20294;-57
2021/07/18 10:00:41;;;;;;;3.70;1.77;;;28.00;1.00;;;;;;5035801;28;20208;-55
2021/07/18 10:03:22;;;;;;;4.70;1.50;;;27.10;1.00;;;;;;5037090;28;20220;-55
2021/07/18 10:06:14;;;;;;;1.83;1.50;;;27.20;99.90;;;;;;5038901;28;20200;-55
2021/07/18 10:08:43;;;;;;;5.03;1.63;;;27.30;1.00;;;;;;5033996;28;20271;-55
2021/07/18 10:11:14;;;;;;;2.70;2.47;;;27.00;99.90;;;;;;5029385;28;20295;-55
2021/07/18 10:13:42;;;;;;;5.37;2.00;;;27.40;1.00;;;;;;5022300;28;20646;-55
2021/07/18 10:16:11;;;;;;;2.40;1.60;;;26.90;71.30;;;;;;5018743;28;20642;-55
2021/07/18 10:18:40;;;;;;;3.33;1.77;;;27.20;99.90;;;;;;5025275;28;20208;-55
2021/07/18 10:21:09;;;;;;;2.00;1.33;;;28.10;1.00;;;;;;5028611;28;20729;-55
2021/07/18 10:23:39;;;;;;;2.77;1.87;;;27.90;1.00;;;;;;5036278;28;20674;-55
2021/07/18 10:26:19;;;;;;;3.90;1.97;;;27.40;1.00;;;;;;5040030;28;20286;-55
2021/07/18 10:28:47;;;;;;;5.90;2.73;;;27.00;1.00;;;;;;5041203;28;20235;-55
2021/07/18 10:31:26;;;;;;;5.67;1.70;;;26.50;99.90;;;;;;5055372;28;20303;-55
2021/07/18 10:33:58;;;;;;;4.47;2.17;;;26.90;1.00;;;;;;5040103;28;20333;-55
2021/07/18 10:36:26;;;;;;;4.47;1.93;;;27.00;99.90;;;;;;5044747;28;20204;-55
2021/07/18 10:38:53;;;;;;;3.30;1.70;;;27.10;99.90;;;;;;5042267;28;20235;-55
2021/07/18 10:41:52;;;;;;;2.03;1.70;;;27.40;1.00;;;;;;5042235;28;20250;-55
2021/07/18 10:44:19;;;;;;;3.83;1.80;;;27.40;99.90;;;;;;5017857;28;20312;-55
2021/07/18 10:46:46;;;;;;;2.07;1.57;;;27.70;1.00;;;;;;5038378;28;20298;-55
2021/07/18 10:49:14;;;;;;;2.23;1.63;;;27.70;99.90;;;;;;5042904;28;20235;-55
2021/07/18 10:51:50;;;;;;;2.07;1.60;;;27.60;99.90;;;;;;5045399;28;20207;-55
2021/07/18 10:54:19;;;;;;;3.13;2.10;;;27.70;1.00;;;;;;5041262;28;20692;-55
2021/07/18 10:56:48;;;;;;;3.43;2.10;;;27.90;1.00;;;;;;5045435;28;21073;-55
2021/07/18 10:59:38;;;;;;;2.33;2.13;;;27.90;1.00;;;;;;5044802;28;20204;-55
2021/07/18 11:02:15;;;;;;;2.90;1.83;;;28.10;1.00;;;;;;5041437;28;20277;-55
2021/07/18 11:04:48;;;;;;;3.37;1.80;;;27.60;1.00;;;;;;5042807;28;20215;-55
2021/07/18 11:07:20;;;;;;;2.17;1.53;;;28.20;1.00;;;;;;5043880;28;20681;-55
2021/07/18 11:09:51;;;;;;;1.77;1.60;;;28.00;1.00;;;;;;5042218;28;20205;-55
2021/07/18 11:12:30;;;;;;;3.60;1.70;;;28.50;1.00;;;;;;5040974;28;20588;-55
2021/07/18 11:15:15;;;;;;;4.20;1.80;;;29.00;99.90;;;;;;5039203;28;20203;-55
2021/07/18 11:17:57;;;;;;;3.07;1.87;;;29.50;99.90;;;;;;5041652;28;20639;-55
2021/07/18 11:20:46;;;;;;;2.63;1.73;;;28.80;99.90;;;;;;5045465;28;20248;-55
2021/07/18 11:23:18;;;;;;;2.93;1.60;;;29.10;99.90;;;;;;5040433;28;20648;-55
2021/07/18 11:26:07;;;;;;;1.73;1.50;;;28.90;99.90;;;;;;5043897;28;20541;-55
2021/07/18 11:28:38;;;;;;;3.97;1.70;;;28.60;99.90;;;;;;5036879;28;20570;-55
2021/07/18 11:31:13;;;;;;;2.17;1.73;;;29.50;99.90;;;;;;5042707;28;20303;-55
2021/07/18 11:33:40;;;;;;;3.47;1.57;;;28.90;99.90;;;;;;5043988;28;20518;-55
2021/07/18 11:36:08;;;;;;;3.00;1.50;;;28.40;1.00;;;;;;5041976;28;20763;-55
2021/07/18 11:38:35;;;;;;;3.10;1.70;;;29.30;99.90;;;;;;5035089;28;20666;-55
2021/07/18 11:41:33;;;;;;;2.67;1.70;;;29.70;99.90;;;;;;5041048;28;20286;-55
2021/07/18 11:44:02;;;;;;;2.27;1.73;;;29.90;90.50;;;;;;5041117;28;20303;-55
2021/07/18 11:46:34;;;;;;;2.60;1.50;;;30.20;16.00;;;;;;5042124;28;20305;-55
2021/07/18 11:49:04;;;;;;;3.60;1.57;;;30.50;1.00;;;;;;5044685;28;20236;-55
2021/07/18 11:51:34;;;;;;;3.97;1.97;;;29.90;1.00;;;;;;5041439;28;20239;-55
2021/07/18 11:54:02;;;;;;;1.60;1.50;;;29.00;99.90;;;;;;5040331;28;20238;-55
2021/07/18 11:56:32;;;;;;;1.87;1.43;;;29.80;99.90;;;;;;5039826;28;20782;-55
2021/07/18 11:59:19;;;;;;;3.00;1.80;;;30.10;1.00;;;;;;5040834;28;20242;-55
2021/07/18 12:01:53;;;;;;;2.23;1.70;;;29.30;14.60;;;;;;5037101;28;20326;-55
2021/07/18 12:04:23;;;;;;;1.80;1.60;;;29.50;1.00;;;;;;5040311;28;20224;-55
2021/07/18 12:06:54;;;;;;;2.87;1.77;;;29.10;1.00;;;;;;5043024;28;20807;-55
2021/07/18 12:09:23;;;;;;;2.33;1.87;;;29.80;1.00;;;;;;5043669;28;20197;-55
2021/07/18 12:11:54;;;;;;;1.67;1.37;;;30.30;1.00;;;;;;5040900;28;20527;-53
2021/07/18 12:14:22;;;;;;;4.27;1.73;;;30.80;1.00;;;;;;5040083;28;20253;-56
2021/07/18 12:16:56;;;;;;;4.00;1.93;;;31.00;1.00;;;;;;5038125;28;20703;-55
2021/07/18 12:19:29;;;;;;;1.60;1.40;;;30.50;1.00;;;;;;5041661;28;20230;-55
2021/07/18 12:21:57;;;;;;;3.20;1.37;;;30.30;1.00;;;;;;5036437;28;20295;-56
2021/07/18 12:24:33;;;;;;;3.33;1.80;;;30.30;1.00;;;;;;5039676;28;20216;-55
2021/07/18 12:27:27;;;;;;;3.07;1.93;;;29.60;1.00;;;;;;5038816;28;20191;-55
2021/07/18 12:30:00;;;;;;;3.10;1.70;;;30.00;1.00;;;;;;5033583;28;20204;-55
2021/07/18 12:32:33;;;;;;;3.15;1.77;;;30.50;1.00;;;;;;5041236;28;20227;-55
2021/07/18 12:35:17;;;;;;;3.67;1.98;;;30.00;1.00;;;;;;5040069;28;20293;-55
2021/07/18 12:37:45;;;;;;;2.55;1.58;;;30.50;1.00;;;;;;5034795;28;20236;-54
2021/07/18 12:40:12;;;;;;;2.53;1.55;;;30.10;1.00;;;;;;5034626;28;20266;-54
2021/07/18 12:42:45;;;;;;;1.77;1.40;;;30.30;1.00;;;;;;5039951;28;20214;-56
2021/07/18 12:45:15;;;;;;;2.23;1.80;;;30.80;1.00;;;;;;5038684;28;20600;-54
2021/07/18 12:47:59;;;;;;;1.90;1.55;;;31.20;1.00;;;;;;5040130;28;20335;-54
2021/07/18 12:50:29;;;;;;;1.95;1.50;;;30.50;1.00;;;;;;5057478;28;20202;-54
2021/07/18 12:53:16;;;;;;;2.83;1.70;;;30.30;1.00;;;;;;5036522;28;20279;-54
2021/07/18 12:56:00;;;;;;;2.97;1.60;;;30.50;1.00;;;;;;5043063;28;20241;-54
2021/07/18 12:58:41;;;;;;;1.90;1.45;;;30.70;1.00;;;;;;5038764;28;20223;-54